createdAt,value
2022-09-21T00:04:29.719Z,66125.59
2022-09-21T00:09:33.338Z,66102.66
2022-09-21T00:14:36.984Z,66095.78
2022-09-21T00:19:42.047Z,66111.16
2022-09-21T00:24:45.750Z,66132.28
2022-09-21T00:29:49.565Z,66118.28
2022-09-21T00:34:54.974Z,66149.16
2022-09-21T00:39:58.736Z,66114.44
2022-09-21T00:45:02.462Z,66076.94
2022-09-21T00:50:11.615Z,66090.41
2022-09-21T00:55:22.318Z,66128.91
2022-09-21T01:00:26.171Z,66125.75
2022-09-21T01:05:31.581Z,66148.09
2022-09-21T01:10:48.609Z,66145.06
2022-09-21T01:16:03.477Z,66192.75
2022-09-21T01:21:24.265Z,66183.47
2022-09-21T01:26:45.469Z,66186.22
2022-09-21T01:31:56.630Z,66114.97
2022-09-21T01:37:07.566Z,66097.94
2022-09-21T01:42:13.454Z,66082.75
2022-09-21T01:47:19.849Z,66102.75
2022-09-21T01:52:32.374Z,66189.63
2022-09-21T01:57:44.017Z,66164.78
2022-09-21T02:02:53.161Z,66173.53
2022-09-21T02:07:58.417Z,66129.34
2022-09-21T02:13:07.027Z,66111.84
2022-09-21T02:18:23.009Z,66144.53
2022-09-21T02:23:34.236Z,66079.63
2022-09-21T02:28:44.756Z,66112.84
2022-09-21T02:33:59.775Z,66076.31
2022-09-21T02:39:08.452Z,66102.66
2022-09-21T02:44:16.625Z,66084.53
2022-09-21T02:49:26.956Z,66127.81
2022-09-21T02:54:33.495Z,66061.34
2022-09-21T02:59:37.165Z,66135.84
2022-09-21T03:04:43.551Z,66112.91
2022-09-21T03:09:47.300Z,66162.47
2022-09-21T03:14:51.361Z,66219.38
2022-09-21T03:19:56.650Z,66195.34
2022-09-21T03:25:00.289Z,66176.66
2022-09-21T03:30:04.199Z,66213.66
2022-09-21T03:35:09.913Z,66218.38
2022-09-21T03:40:13.744Z,66127.75
2022-09-21T03:45:17.546Z,66129.44
2022-09-21T03:50:22.548Z,66139.06
2022-09-21T03:55:27.477Z,66159.53
2022-09-21T04:00:31.603Z,66199.09
2022-09-21T04:05:36.604Z,66195.25
2022-09-21T04:10:42.746Z,66173.81
2022-09-21T04:15:46.413Z,66190.44
2022-09-21T04:20:51.710Z,66123.47
2022-09-21T04:25:58.065Z,66173.81
2022-09-21T04:31:01.917Z,66163.72
2022-09-21T04:36:08.021Z,66168.47
2022-09-21T04:41:11.898Z,66206.16
2022-09-21T04:46:17.702Z,66245.31
2022-09-21T04:51:22.673Z,66166.66
2022-09-21T04:56:26.277Z,66191.59
2022-09-21T05:01:30.001Z,66178.81
2022-09-21T05:06:35.519Z,66162.56
2022-09-21T05:11:40.471Z,66199.63
2022-09-21T05:16:44.244Z,66132.03
2022-09-21T05:21:49.203Z,66130.06
2022-09-21T05:26:52.956Z,66152.09
2022-09-21T05:32:02.637Z,66157.22
2022-09-21T05:37:15.233Z,66123.47
2022-09-21T05:42:19.390Z,66156.66
2022-09-21T05:47:27.544Z,66153.00
2022-09-21T05:52:40.643Z,66239.22
2022-09-21T05:57:52.361Z,66130.59
2022-09-21T06:03:16.926Z,66171.13
2022-09-21T06:08:22.685Z,66174.53
2022-09-21T06:13:26.667Z,66159.44
2022-09-21T06:18:30.317Z,66180.44
2022-09-21T06:23:36.029Z,66209.53
2022-09-21T06:28:39.719Z,66168.63
2022-09-21T06:33:48.018Z,66233.50
2022-09-21T06:38:54.240Z,66231.34
2022-09-21T06:43:58.045Z,66285.97
2022-09-21T06:49:01.988Z,66185.78
2022-09-21T06:54:07.051Z,66228.66
2022-09-21T06:59:15.233Z,66218.31
2022-09-21T07:04:21.967Z,66251.66
2022-09-21T07:14:53.781Z,66194.34
2022-09-21T07:19:57.464Z,66207.22
2022-09-21T07:25:02.737Z,66214.09
2022-09-21T07:30:07.974Z,66256.03
2022-09-21T07:35:12.093Z,66270.50
2022-09-21T07:40:19.853Z,66281.22
2022-09-21T07:45:25.840Z,66170.06
2022-09-21T07:50:29.680Z,66208.75
2022-09-21T07:55:34.752Z,66278.91
2022-09-21T08:00:38.653Z,66285.00
2022-09-21T08:05:42.317Z,66339.16
2022-09-21T08:10:47.285Z,66333.81
2022-09-21T08:15:59.230Z,66330.03
2022-09-21T08:21:03.539Z,66253.81
2022-09-21T08:26:09.084Z,66273.19
2022-09-21T08:31:12.985Z,66333.19
2022-09-21T08:40:27.317Z,66349.91
2022-09-21T08:45:34.906Z,66318.31
2022-09-21T08:50:42.500Z,66345.59
2022-09-21T08:55:47.618Z,66390.69
2022-09-21T09:01:06.150Z,66383.00
2022-09-21T09:06:17.577Z,66373.41
2022-09-21T09:11:34.935Z,66443.38
2022-09-21T09:16:47.844Z,66410.50
2022-09-21T09:21:51.594Z,66418.53
2022-09-21T09:27:04.423Z,66408.75
2022-09-21T09:32:16.910Z,66420.06
2022-09-21T09:37:26.166Z,66543.69
2022-09-21T09:42:44.595Z,66539.44
2022-09-21T09:48:17.718Z,66479.84
2022-09-21T09:53:24.601Z,66443.31
2022-09-21T09:58:39.290Z,66507.13
2022-09-21T10:03:43.075Z,66535.31
2022-09-21T10:08:47.806Z,66556.66
2022-09-21T10:13:54.041Z,66541.09
2022-09-21T10:19:01.683Z,66611.50
2022-09-21T10:24:08.720Z,66513.75
2022-09-21T10:29:30.294Z,66653.81
2022-09-21T10:34:36.621Z,66588.84
2022-09-21T10:39:47.839Z,66469.47
2022-09-21T10:45:05.251Z,66532.47
2022-09-21T10:50:24.776Z,66559.34
2022-09-21T10:55:32.163Z,66621.78
2022-09-21T11:00:43.794Z,66609.34
2022-09-21T11:05:51.974Z,66635.69
2022-09-21T11:11:10.016Z,66529.25
2022-09-21T11:16:22.907Z,66464.09
2022-09-21T11:21:36.377Z,66409.84
2022-09-21T11:26:45.452Z,66285.00
2022-09-21T11:32:06.053Z,66272.66
2022-09-21T11:37:20.048Z,66272.66
2022-09-21T11:42:42.945Z,66340.22
2022-09-21T11:48:07.013Z,66446.44
2022-09-21T11:53:38.258Z,66669.50
2022-09-21T12:27:49.992Z,66213.56
2022-09-21T12:33:00.764Z,66305.44
2022-09-21T12:38:13.756Z,66515.75
2022-09-21T12:43:29.615Z,66545.44
2022-09-21T12:48:35.165Z,66473.38
2022-09-21T12:53:44.509Z,66694.78
2022-09-21T12:59:08.114Z,66664.72
2022-09-21T13:04:26.697Z,66562.50
2022-09-21T13:09:32.178Z,66603.88
2022-09-21T13:14:44.605Z,66608.28
2022-09-21T13:19:58.692Z,66557.81
2022-09-21T13:25:06.185Z,66485.19
2022-09-21T13:30:35.760Z,66505.00
2022-09-21T13:36:04.832Z,66574.41
2022-09-21T13:41:40.251Z,66517.88
2022-09-21T13:46:57.692Z,66706.09
2022-09-21T13:52:05.127Z,66619.50
2022-09-21T13:57:22.307Z,66525.41
2022-09-21T14:02:33.194Z,66470.69
2022-09-21T14:12:49.670Z,66610.41
2022-09-21T14:18:20.737Z,66619.63
2022-09-21T14:23:29.765Z,66520.56
2022-09-21T14:28:38.544Z,66520.09
2022-09-21T14:33:48.287Z,66707.78
2022-09-21T14:38:58.259Z,66751.91
2022-09-21T14:44:02.504Z,66642.69
2022-09-21T14:49:25.076Z,66719.47
2022-09-21T14:54:38.632Z,66622.16
2022-09-21T15:00:08.479Z,66570.09
2022-09-21T15:05:24.441Z,66654.44
2022-09-21T15:10:55.015Z,66686.16
2022-09-21T15:16:09.852Z,66684.56
2022-09-21T15:21:24.293Z,66686.94
2022-09-21T15:26:34.522Z,66701.78
2022-09-21T15:31:40.783Z,66530.88
2022-09-21T15:36:52.199Z,66369.75
2022-09-21T15:42:18.068Z,66386.84
2022-09-21T15:47:26.163Z,66343.44
2022-09-21T15:52:37.954Z,66177.19
2022-09-21T15:57:43.954Z,66167.00
2022-09-21T16:03:04.673Z,66170.16
2022-09-21T16:08:22.618Z,66174.91
2022-09-21T16:13:44.264Z,66179.91
2022-09-21T16:18:51.112Z,66284.44
2022-09-21T16:23:58.304Z,66272.66
2022-09-21T16:29:23.602Z,66282.94
2022-09-21T16:34:36.832Z,66391.28
2022-09-21T16:39:42.303Z,66320.91
2022-09-21T16:44:47.134Z,66248.63
2022-09-21T16:49:51.160Z,66280.00
2022-09-21T16:54:58.690Z,66214.66
2022-09-21T17:00:02.970Z,66275.25
2022-09-21T17:05:08.275Z,66256.41
2022-09-21T17:10:16.481Z,66324.06
2022-09-21T17:15:20.386Z,66308.66
2022-09-21T17:20:30.004Z,66371.88
2022-09-21T17:25:36.847Z,66413.25
2022-09-21T17:30:42.592Z,66412.25
2022-09-21T17:35:46.979Z,66486.72
2022-09-21T17:40:52.914Z,66377.28
2022-09-21T17:46:03.955Z,66374.41
2022-09-21T17:51:09.027Z,66339.63
2022-09-21T17:56:26.717Z,66347.66
2022-09-21T18:01:33.887Z,66351.50
2022-09-21T18:06:38.581Z,66389.00
2022-09-21T18:12:02.815Z,66378.25
2022-09-21T18:17:23.756Z,66335.94
2022-09-21T18:22:35.715Z,66322.38
2022-09-21T18:27:41.436Z,66304.31
2022-09-21T18:32:59.017Z,66287.13
2022-09-21T18:38:17.083Z,66334.41
2022-09-21T18:43:30.750Z,66284.38
2022-09-21T18:48:51.739Z,66281.06
2022-09-21T18:53:57.141Z,66271.41
2022-09-21T18:59:03.009Z,66269.88
2022-09-21T19:04:07.768Z,66253.81
2022-09-21T19:09:21.914Z,66263.09
2022-09-21T19:14:38.427Z,66298.31
2022-09-21T19:19:56.617Z,66195.97
2022-09-21T19:25:08.615Z,66274.34
2022-09-21T19:30:15.115Z,66322.44
2022-09-21T19:35:22.956Z,66295.09
2022-09-21T19:40:29.974Z,66307.44
2022-09-21T19:45:46.202Z,66304.31
2022-09-21T19:50:54.748Z,66213.66
2022-09-21T19:56:17.204Z,66179.25
2022-09-21T20:01:22.957Z,66200.34
2022-09-21T20:06:29.867Z,66251.66
2022-09-21T20:11:43.078Z,66300.53
2022-09-21T20:16:53.208Z,66319.84
2022-09-21T20:22:04.943Z,66218.47
2022-09-21T20:27:21.227Z,66259.34
2022-09-21T20:32:26.551Z,66260.31
2022-09-21T20:37:30.362Z,66194.28
2022-09-21T20:42:38.312Z,66321.56
2022-09-21T20:47:43.842Z,66350.97
2022-09-21T20:52:47.846Z,66306.38
2022-09-21T20:57:51.553Z,66318.78
2022-09-21T21:02:58.667Z,66319.22
2022-09-21T21:08:03.383Z,66285.44
2022-09-21T21:13:07.274Z,66156.31
2022-09-21T21:18:12.826Z,66237.78
2022-09-21T21:23:16.473Z,66210.88
2022-09-21T21:28:20.822Z,66132.66
2022-09-21T21:33:25.975Z,66180.25
2022-09-21T21:38:29.645Z,66196.41
2022-09-21T21:43:34.451Z,66221.69
2022-09-21T21:48:40.876Z,66184.16
2022-09-21T21:53:45.521Z,66196.94
2022-09-21T21:58:53.340Z,66174.44
2022-09-21T22:03:59.913Z,66169.72
2022-09-21T22:09:05.433Z,66203.75
2022-09-21T22:14:09.657Z,66214.66
2022-09-21T22:19:14.775Z,66281.06
2022-09-21T22:24:18.712Z,66267.91
2022-09-21T22:29:22.425Z,66183.09
2022-09-21T22:34:27.492Z,66152.47
2022-09-21T22:39:32.286Z,66163.72
2022-09-21T22:44:35.986Z,66151.94
2022-09-21T22:49:41.045Z,66192.22
2022-09-21T22:54:44.734Z,66200.41
2022-09-21T22:59:48.638Z,66247.44
2022-09-21T23:04:53.600Z,66220.09
2022-09-21T23:09:57.381Z,66143.53
2022-09-21T23:15:01.063Z,66171.78
2022-09-21T23:20:07.102Z,66189.63
2022-09-21T23:25:10.738Z,66257.47
2022-09-21T23:30:14.458Z,66154.16
2022-09-21T23:35:19.556Z,66136.94
2022-09-21T23:40:23.266Z,66224.19
2022-09-21T23:45:26.884Z,66265.16
2022-09-21T23:50:32.092Z,66246.28
2022-09-21T23:55:35.758Z,66170.78
